createdAt,value
2022-09-10T00:00:36.476Z,1.10
2022-09-10T00:01:36.575Z,0.50
2022-09-10T00:02:36.450Z,1.30
2022-09-10T00:03:36.467Z,1.30
2022-09-10T00:04:36.456Z,1.80
2022-09-10T00:05:36.293Z,2.60
2022-09-10T00:06:36.255Z,2.00
2022-09-10T00:07:36.226Z,2.50
2022-09-10T00:08:36.260Z,1.20
2022-09-10T00:09:36.196Z,2.40
2022-09-10T00:10:36.285Z,2.70
2022-09-10T00:11:36.105Z,1.70
2022-09-10T00:12:36.096Z,0.60
2022-09-10T00:13:36.077Z,0.70
2022-09-10T00:14:36.048Z,1.90
2022-09-10T00:15:36.053Z,0.80
2022-09-10T00:16:36.136Z,1.40
2022-09-10T00:17:35.963Z,1.70
2022-09-10T00:18:35.994Z,0.60
2022-09-10T00:19:35.917Z,0.50
2022-09-10T00:20:35.908Z,1.20
2022-09-10T00:21:35.973Z,1.70
2022-09-10T00:22:35.909Z,1.80
2022-09-10T00:23:35.789Z,2.00
2022-09-10T00:24:35.764Z,1.10
2022-09-10T00:25:35.741Z,1.80
2022-09-10T00:26:35.726Z,2.20
2022-09-10T00:27:35.739Z,3.30
2022-09-10T00:28:35.850Z,1.50
2022-09-10T00:29:35.642Z,0.90
2022-09-10T00:30:35.674Z,0.90
2022-09-10T00:31:35.637Z,1.00
2022-09-10T00:32:35.572Z,1.30
2022-09-10T00:33:35.596Z,1.10
2022-09-10T00:34:35.644Z,1.10
2022-09-10T00:35:35.524Z,1.90
2022-09-10T00:36:35.496Z,1.10
2022-09-10T00:37:35.467Z,2.60
2022-09-10T00:38:35.458Z,1.80
2022-09-10T00:39:35.906Z,1.20
2022-09-10T00:40:35.587Z,1.40
2022-09-10T00:41:35.419Z,2.40
2022-09-10T00:42:35.427Z,1.70
2022-09-10T00:43:35.372Z,2.90
2022-09-10T00:44:35.740Z,1.60
2022-09-10T00:45:35.434Z,2.60
2022-09-10T00:46:35.444Z,1.40
2022-09-10T00:47:35.290Z,1.80
2022-09-10T00:48:35.373Z,1.40
2022-09-10T00:49:35.243Z,1.70
2022-09-10T00:50:35.256Z,1.60
2022-09-10T00:51:35.259Z,1.70
2022-09-10T00:52:39.402Z,1.40
2022-09-10T00:53:35.155Z,0.70
2022-09-10T00:54:35.153Z,1.30
2022-09-10T00:55:35.111Z,1.00
2022-09-10T00:56:35.100Z,1.10
2022-09-10T00:57:35.114Z,1.00
2022-09-10T00:58:35.329Z,1.80
2022-09-10T00:59:35.104Z,1.00
2022-09-10T01:00:35.128Z,1.30
2022-09-10T01:01:35.151Z,2.20
2022-09-10T01:02:35.781Z,0.60
2022-09-10T01:03:35.751Z,1.00
2022-09-10T01:04:34.901Z,1.20
2022-09-10T01:05:35.559Z,3.20
2022-09-10T01:06:34.881Z,0.60
2022-09-10T01:07:34.849Z,0.50
2022-09-10T01:08:34.840Z,1.10
2022-09-10T01:09:36.037Z,2.90
2022-09-10T01:10:34.834Z,2.30
2022-09-10T01:11:35.014Z,0.70
2022-09-10T01:12:36.080Z,1.30
2022-09-10T01:13:34.934Z,0.60
2022-09-10T01:14:34.628Z,1.10
2022-09-10T01:15:34.810Z,1.00
2022-09-10T01:16:34.634Z,1.20
2022-09-10T01:17:34.638Z,1.40
2022-09-10T01:18:35.335Z,1.80
2022-09-10T01:19:34.511Z,1.40
2022-09-10T01:20:34.516Z,1.90
2022-09-10T01:21:34.619Z,1.00
2022-09-10T01:22:34.432Z,1.80
2022-09-10T01:23:34.445Z,1.50
2022-09-10T01:24:35.126Z,0.70
2022-09-10T01:25:34.839Z,0.90
2022-09-10T01:26:34.531Z,0.80
2022-09-10T01:27:34.403Z,0.80
2022-09-10T01:28:34.264Z,1.70
2022-09-10T01:29:34.201Z,1.10
2022-09-10T01:30:34.180Z,0.90
2022-09-10T01:31:34.172Z,0.90
2022-09-10T01:32:34.132Z,0.80
2022-09-10T01:33:34.280Z,0.80
2022-09-10T01:34:34.068Z,1.30
2022-09-10T01:35:34.049Z,1.00
2022-09-10T01:36:34.019Z,0.70
2022-09-10T01:37:33.991Z,1.40
2022-09-10T01:38:33.976Z,1.00
2022-09-10T01:39:34.176Z,1.40
2022-09-10T01:40:33.928Z,1.10
2022-09-10T01:41:33.910Z,0.90
2022-09-10T01:42:33.900Z,1.40
2022-09-10T01:43:33.887Z,0.90
2022-09-10T01:44:33.870Z,1.20
2022-09-10T01:45:34.526Z,1.80
2022-09-10T01:46:33.842Z,1.60
2022-09-10T01:47:33.818Z,1.60
2022-09-10T01:48:33.790Z,1.30
2022-09-10T01:49:33.770Z,1.00
2022-09-10T01:50:33.737Z,0.80
2022-09-10T01:51:33.823Z,0.80
2022-09-10T01:52:33.702Z,1.90
2022-09-10T01:53:33.698Z,0.70
2022-09-10T01:54:33.668Z,0.80
2022-09-10T01:55:33.643Z,1.10
2022-09-10T01:56:33.635Z,0.80
2022-09-10T01:57:33.745Z,0.90
2022-09-10T01:58:33.617Z,0.60
2022-09-10T01:59:33.564Z,0.60
2022-09-10T02:00:33.560Z,0.60
2022-09-10T02:01:33.546Z,2.30
2022-09-10T02:02:33.523Z,0.70
2022-09-10T02:03:33.821Z,0.60
2022-09-10T02:04:33.496Z,0.40
2022-09-10T02:05:33.486Z,0.70
2022-09-10T02:06:33.624Z,1.30
2022-09-10T02:07:33.622Z,1.20
2022-09-10T02:08:33.435Z,0.60
2022-09-10T02:09:33.540Z,1.00
2022-09-10T02:10:33.452Z,1.00
2022-09-10T02:11:33.378Z,1.10
2022-09-10T02:12:33.388Z,1.10
2022-09-10T02:13:33.423Z,1.20
2022-09-10T02:14:33.331Z,1.10
2022-09-10T02:15:33.458Z,0.40
2022-09-10T02:16:33.474Z,0.60
2022-09-10T02:17:33.370Z,1.10
2022-09-10T02:18:33.194Z,1.30
2022-09-10T02:19:33.206Z,1.10
2022-09-10T02:20:33.159Z,1.00
2022-09-10T02:21:33.277Z,1.20
2022-09-10T02:22:33.571Z,0.20
2022-09-10T02:23:33.074Z,0.40
2022-09-10T02:24:33.069Z,0.70
2022-09-10T02:25:33.090Z,0.80
2022-09-10T02:26:33.068Z,0.90
2022-09-10T02:27:33.229Z,0.20
2022-09-10T02:28:33.026Z,1.40
2022-09-10T02:29:33.062Z,0.50
2022-09-10T02:30:33.023Z,0.50
2022-09-10T02:31:33.007Z,1.00
2022-09-10T02:32:33.026Z,0.70
2022-09-10T02:33:33.020Z,0.60
2022-09-10T02:34:32.895Z,0.30
2022-09-10T02:35:32.887Z,0.50
2022-09-10T02:36:32.867Z,1.00
2022-09-10T02:37:32.850Z,0.70
2022-09-10T02:38:32.810Z,0.90
2022-09-10T02:39:33.109Z,0.70
2022-09-10T02:40:32.772Z,1.80
2022-09-10T02:41:32.743Z,0.70
2022-09-10T02:42:32.726Z,0.60
2022-09-10T02:43:32.701Z,1.20
2022-09-10T02:44:32.683Z,1.50
2022-09-10T02:45:32.874Z,0.90
2022-09-10T02:46:32.652Z,1.00
2022-09-10T02:47:32.632Z,1.50
2022-09-10T02:48:32.622Z,0.80
2022-09-10T02:49:32.582Z,1.30
2022-09-10T02:50:32.581Z,1.10
2022-09-10T02:51:32.731Z,0.60
2022-09-10T02:52:32.625Z,0.40
2022-09-10T02:53:32.529Z,0.40
2022-09-10T02:54:32.523Z,0.40
2022-09-10T02:55:32.633Z,2.10
2022-09-10T02:56:32.491Z,0.80
2022-09-10T02:57:32.485Z,2.10
2022-09-10T02:58:32.528Z,1.60
2022-09-10T02:59:32.408Z,1.80
2022-09-10T03:00:32.431Z,1.00
2022-09-10T03:01:32.385Z,0.40
2022-09-10T03:02:32.365Z,1.60
2022-09-10T03:03:32.358Z,1.00
2022-09-10T03:04:32.446Z,0.40
2022-09-10T03:05:32.371Z,0.90
2022-09-10T03:06:32.275Z,0.50
2022-09-10T03:07:32.271Z,2.10
2022-09-10T03:08:32.258Z,1.30
2022-09-10T03:09:32.273Z,1.00
2022-09-10T03:10:32.368Z,0.30
2022-09-10T03:11:32.204Z,1.30
2022-09-10T03:12:32.183Z,1.20
2022-09-10T03:13:32.179Z,1.00
2022-09-10T03:14:32.141Z,1.10
2022-09-10T03:15:32.139Z,0.90
2022-09-10T03:16:32.336Z,0.60
2022-09-10T03:17:32.093Z,0.60
2022-09-10T03:18:32.083Z,0.80
2022-09-10T03:19:32.053Z,1.40
2022-09-10T03:20:32.040Z,0.90
2022-09-10T03:21:32.049Z,0.80
2022-09-10T03:22:32.135Z,0.50
2022-09-10T03:23:31.981Z,2.10
2022-09-10T03:24:31.971Z,1.40
2022-09-10T03:25:31.949Z,0.40
2022-09-10T03:26:31.951Z,1.50
2022-09-10T03:27:31.945Z,0.40
2022-09-10T03:28:32.015Z,1.20
2022-09-10T03:29:31.865Z,1.30
2022-09-10T03:30:31.852Z,0.40
2022-09-10T03:31:31.867Z,0.90
2022-09-10T03:32:31.808Z,1.30
2022-09-10T03:33:31.799Z,1.90
2022-09-10T03:34:31.934Z,0.30
2022-09-10T03:35:31.757Z,0.50
2022-09-10T03:36:31.696Z,0.80
2022-09-10T03:37:31.676Z,0.50
2022-09-10T03:38:31.675Z,2.70
2022-09-10T03:39:31.677Z,0.60
2022-09-10T03:40:32.011Z,1.60
2022-09-10T03:41:31.617Z,2.60
2022-09-10T03:42:31.605Z,0.70
2022-09-10T03:43:31.576Z,0.30
2022-09-10T03:44:31.544Z,0.40
2022-09-10T03:45:31.616Z,2.80
2022-09-10T03:46:31.681Z,1.10
2022-09-10T03:47:31.515Z,2.10
2022-09-10T03:48:31.530Z,0.50
2022-09-10T03:49:31.472Z,0.50
2022-09-10T03:50:31.454Z,0.60
2022-09-10T03:51:31.602Z,0.30
2022-09-10T03:52:31.939Z,0.80
2022-09-10T03:53:31.389Z,2.70
2022-09-10T03:54:31.356Z,0.40
2022-09-10T03:55:31.359Z,1.90
2022-09-10T03:56:31.308Z,2.00
2022-09-10T03:57:31.361Z,1.10
2022-09-10T03:58:31.460Z,1.10
2022-09-10T03:59:31.240Z,1.10
2022-09-10T04:00:31.223Z,1.70
2022-09-10T04:01:31.198Z,1.40
2022-09-10T04:02:31.209Z,2.40
2022-09-10T04:03:31.195Z,1.50
2022-09-10T04:04:31.278Z,0.50
2022-09-10T04:05:31.132Z,0.70
2022-09-10T04:06:31.109Z,1.30
2022-09-10T04:07:31.090Z,1.20
2022-09-10T04:08:31.109Z,0.90
2022-09-10T04:09:31.057Z,1.20
2022-09-10T04:10:31.117Z,1.20
2022-09-10T04:11:31.013Z,1.20
2022-09-10T04:12:30.996Z,1.00
2022-09-10T04:13:30.969Z,0.80
2022-09-10T04:14:31.163Z,1.00
2022-09-10T04:15:31.271Z,0.70
2022-09-10T04:16:31.103Z,1.20
2022-09-10T04:17:31.074Z,0.90
2022-09-10T04:18:31.073Z,1.40
2022-09-10T04:19:31.064Z,0.90
2022-09-10T04:20:30.952Z,0.80
2022-09-10T04:21:31.084Z,0.50
2022-09-10T04:22:31.106Z,1.10
2022-09-10T04:23:30.957Z,1.50
2022-09-10T04:24:31.001Z,0.90
2022-09-10T04:25:31.126Z,2.40
2022-09-10T04:26:30.994Z,1.00
2022-09-10T04:27:31.049Z,0.50
2022-09-10T04:28:31.038Z,1.00
2022-09-10T04:29:30.881Z,0.70
2022-09-10T04:30:30.816Z,1.20
2022-09-10T04:31:30.962Z,1.70
2022-09-10T04:32:30.862Z,0.60
2022-09-10T04:33:30.897Z,4.30
2022-09-10T04:34:30.988Z,1.30
2022-09-10T04:35:30.942Z,1.30
2022-09-10T04:36:30.912Z,0.90
2022-09-10T04:37:30.920Z,1.00
2022-09-10T04:38:31.073Z,1.70
2022-09-10T04:39:31.020Z,0.70
2022-09-10T04:40:30.998Z,1.80
2022-09-10T04:41:31.577Z,0.80
2022-09-10T04:42:30.698Z,1.00
2022-09-10T04:43:30.691Z,1.20
2022-09-10T04:44:30.691Z,0.80
2022-09-10T04:45:30.755Z,1.40
2022-09-10T04:46:30.712Z,0.80
2022-09-10T04:47:30.547Z,1.00
2022-09-10T04:48:30.521Z,1.00
2022-09-10T04:49:30.515Z,0.80
2022-09-10T04:50:30.489Z,1.20
2022-09-10T04:51:30.524Z,2.60
2022-09-10T04:52:30.573Z,1.80
2022-09-10T04:53:30.436Z,0.50
2022-09-10T04:54:30.414Z,2.30
2022-09-10T04:55:30.417Z,1.80
2022-09-10T04:56:30.401Z,1.50
2022-09-10T04:57:30.579Z,2.00
2022-09-10T04:58:33.285Z,0.80
2022-09-10T04:59:31.363Z,0.40
2022-09-10T05:00:30.356Z,0.70
2022-09-10T05:01:30.334Z,1.40
2022-09-10T05:02:30.365Z,0.40
2022-09-10T05:03:30.380Z,1.70
2022-09-10T05:04:30.415Z,0.60
2022-09-10T05:05:31.242Z,1.40
2022-09-10T05:06:30.411Z,1.30
2022-09-10T05:07:30.530Z,1.30
2022-09-10T05:08:30.566Z,0.80
2022-09-10T05:09:30.642Z,2.30
2022-09-10T05:10:30.524Z,1.50
2022-09-10T05:11:30.734Z,0.60
2022-09-10T05:12:30.294Z,1.80
2022-09-10T05:13:30.533Z,1.20
2022-09-10T05:14:30.519Z,2.30
2022-09-10T05:15:31.197Z,1.30
2022-09-10T05:16:30.338Z,1.00
2022-09-10T05:17:30.100Z,0.60
2022-09-10T05:18:30.409Z,0.70
2022-09-10T05:19:30.063Z,1.90
2022-09-10T05:20:30.628Z,1.00
2022-09-10T05:21:30.059Z,2.10
2022-09-10T05:22:36.019Z,0.80
2022-09-10T05:23:31.263Z,1.60
2022-09-10T05:24:29.987Z,1.60
2022-09-10T05:25:30.075Z,2.30
2022-09-10T05:26:30.052Z,1.40
2022-09-10T05:27:29.989Z,1.70
2022-09-10T05:28:29.932Z,3.80
2022-09-10T05:29:29.928Z,5.80
2022-09-10T05:30:29.912Z,4.80
2022-09-10T05:31:29.914Z,2.40
2022-09-10T05:32:29.975Z,2.60
2022-09-10T05:33:29.892Z,2.10
2022-09-10T05:34:29.845Z,3.70
2022-09-10T05:35:29.895Z,4.00
2022-09-10T05:36:29.829Z,2.60
2022-09-10T05:37:29.811Z,2.10
2022-09-10T05:38:30.003Z,4.10
2022-09-10T05:39:29.836Z,4.00
2022-09-10T05:40:29.796Z,5.30
2022-09-10T05:41:29.802Z,2.70
2022-09-10T05:42:29.778Z,4.00
2022-09-10T05:43:29.785Z,2.40
2022-09-10T05:44:29.844Z,4.30
2022-09-10T05:45:29.822Z,6.10
2022-09-10T05:46:29.852Z,2.50
2022-09-10T05:47:29.719Z,2.00
2022-09-10T05:48:29.701Z,2.60
2022-09-10T05:49:29.698Z,1.50
2022-09-10T05:50:30.153Z,2.60
2022-09-10T05:51:29.693Z,4.80
2022-09-10T05:52:29.652Z,3.60
2022-09-10T05:53:29.628Z,4.20
2022-09-10T05:54:30.460Z,5.50
2022-09-10T05:55:29.609Z,7.70
2022-09-10T05:56:29.685Z,3.80
2022-09-10T05:57:29.648Z,3.60
2022-09-10T05:58:29.562Z,4.80
2022-09-10T05:59:29.549Z,6.50
2022-09-10T06:00:29.551Z,3.50
2022-09-10T06:01:29.533Z,2.80
2022-09-10T06:02:29.725Z,3.00
2022-09-10T06:03:29.623Z,4.40
2022-09-10T06:04:29.465Z,2.60
2022-09-10T06:05:29.454Z,3.20
2022-09-10T06:06:29.439Z,2.90
2022-09-10T06:07:29.427Z,3.50
2022-09-10T06:08:29.563Z,1.30
2022-09-10T06:09:29.428Z,2.40
2022-09-10T06:10:29.371Z,2.50
2022-09-10T06:11:29.369Z,2.20
2022-09-10T06:12:29.347Z,3.70
2022-09-10T06:13:29.334Z,4.00
2022-09-10T06:14:29.471Z,5.20
2022-09-10T06:15:29.342Z,6.30
2022-09-10T06:16:29.329Z,3.90
2022-09-10T06:17:29.287Z,3.90
2022-09-10T06:18:29.270Z,3.50
2022-09-10T06:19:29.425Z,2.70
2022-09-10T06:20:29.396Z,3.90
2022-09-10T06:21:29.286Z,3.30
2022-09-10T06:22:29.207Z,4.40
2022-09-10T06:23:29.218Z,3.00
2022-09-10T06:24:29.173Z,3.50
2022-09-10T06:25:29.176Z,1.40
2022-09-10T06:26:29.666Z,2.70
2022-09-10T06:27:29.179Z,3.30
2022-09-10T06:28:29.101Z,1.50
2022-09-10T06:29:29.095Z,6.90
2022-09-10T06:30:29.118Z,2.90
2022-09-10T06:31:29.075Z,3.30
2022-09-10T06:32:29.176Z,4.00
2022-09-10T06:33:29.112Z,4.80
2022-09-10T06:34:29.059Z,4.40
2022-09-10T06:35:29.074Z,4.00
2022-09-10T06:36:29.044Z,3.00
2022-09-10T06:37:29.027Z,4.90
2022-09-10T06:38:29.219Z,3.90
2022-09-10T06:39:29.050Z,5.10
2022-09-10T06:40:28.994Z,4.80
2022-09-10T06:41:28.985Z,4.50
2022-09-10T06:42:29.134Z,4.10
2022-09-10T06:43:28.977Z,6.40
2022-09-10T06:44:29.150Z,2.90
2022-09-10T06:45:28.995Z,3.30
2022-09-10T06:48:06.857Z,1.40
2022-09-10T06:48:38.883Z,2.70
2022-09-10T06:49:30.025Z,3.00
2022-09-10T06:50:28.917Z,2.30
2022-09-10T06:51:28.947Z,2.70
2022-09-10T06:52:29.362Z,2.90
2022-09-10T06:53:29.642Z,2.90
2022-09-10T06:54:28.881Z,1.40
2022-09-10T06:55:29.086Z,2.50
2022-09-10T06:56:28.894Z,2.00
2022-09-10T06:57:28.881Z,2.80
2022-09-10T06:58:28.879Z,3.70
2022-09-10T06:59:28.845Z,2.50
2022-09-10T07:00:28.821Z,3.80
2022-09-10T07:01:28.957Z,1.90
2022-09-10T07:02:28.831Z,2.20
2022-09-10T07:03:28.970Z,3.70
2022-09-10T07:04:28.823Z,3.80
2022-09-10T07:05:28.807Z,4.50
2022-09-10T07:06:28.768Z,2.90
2022-09-10T07:07:29.116Z,2.70
2022-09-10T07:08:28.756Z,4.00
2022-09-10T07:09:28.780Z,2.80
2022-09-10T07:10:28.746Z,2.80
2022-09-10T07:11:28.738Z,2.30
2022-09-10T07:12:28.721Z,2.50
2022-09-10T07:13:28.926Z,1.90
2022-09-10T07:14:28.686Z,1.90
2022-09-10T07:15:28.712Z,2.00
2022-09-10T07:16:28.666Z,2.70
2022-09-10T07:17:31.750Z,3.20
2022-09-10T07:18:28.653Z,2.60
2022-09-10T07:19:28.842Z,5.20
2022-09-10T07:20:28.645Z,19.00
2022-09-10T07:21:28.647Z,12.00
2022-09-10T07:22:28.618Z,9.50
2022-09-10T07:23:28.606Z,8.70
2022-09-10T07:24:28.593Z,4.20
2022-09-10T07:25:28.728Z,6.00
2022-09-10T07:26:28.574Z,7.80
2022-09-10T07:27:28.574Z,4.10
2022-09-10T07:28:28.542Z,8.30
2022-09-10T07:29:28.534Z,6.00
2022-09-10T07:30:28.513Z,4.10
2022-09-10T07:31:28.783Z,8.10
2022-09-10T07:32:28.482Z,4.60
2022-09-10T07:33:28.541Z,4.60
2022-09-10T07:34:28.452Z,4.30
2022-09-10T07:35:28.457Z,5.10
2022-09-10T07:36:28.428Z,3.90
2022-09-10T07:37:28.642Z,4.90
2022-09-10T07:38:28.440Z,3.80
2022-09-10T07:39:28.448Z,3.80
2022-09-10T07:40:28.431Z,3.00
2022-09-10T07:41:28.376Z,6.70
2022-09-10T07:42:28.359Z,8.00
2022-09-10T07:43:28.434Z,7.30
2022-09-10T07:44:28.384Z,5.10
2022-09-10T07:45:28.394Z,5.90
2022-09-10T07:46:28.342Z,8.90
2022-09-10T07:47:28.359Z,7.30
2022-09-10T07:48:28.321Z,1802.60
2022-09-10T07:49:28.365Z,1999.90
2022-09-10T07:50:28.276Z,1999.90
2022-09-10T07:51:28.310Z,1075.80
2022-09-10T07:52:28.206Z,1999.90
2022-09-10T07:53:28.296Z,1425.20
2022-09-10T07:54:28.194Z,672.40
2022-09-10T07:55:28.304Z,397.30
2022-09-10T07:56:28.192Z,198.80
2022-09-10T07:57:28.983Z,115.20
2022-09-10T07:58:28.074Z,1999.90
2022-09-10T07:59:28.058Z,571.10
2022-09-10T08:00:28.036Z,226.20
2022-09-10T08:01:28.110Z,77.10
2022-09-10T08:02:28.051Z,31.70
2022-09-10T08:03:27.997Z,16.60
2022-09-10T08:04:27.936Z,9.10
2022-09-10T08:05:27.908Z,1306.20
2022-09-10T08:06:27.892Z,1999.90
2022-09-10T08:07:27.945Z,1837.60
2022-09-10T08:08:27.830Z,1648.00
2022-09-10T08:09:28.061Z,1990.80
2022-09-10T08:10:27.795Z,763.70
2022-09-10T08:11:27.762Z,463.60
2022-09-10T08:12:27.753Z,254.20
2022-09-10T08:13:27.794Z,162.10
2022-09-10T08:14:27.702Z,63.80
2022-09-10T08:15:27.698Z,65.10
2022-09-10T08:16:27.657Z,707.80
2022-09-10T08:17:27.619Z,894.10
2022-09-10T08:18:27.600Z,311.10
2022-09-10T08:19:27.723Z,93.10
2022-09-10T08:20:27.543Z,53.80
2022-09-10T08:21:27.557Z,26.30
2022-09-10T08:22:27.495Z,14.60
2022-09-10T08:23:27.477Z,6.80
2022-09-10T08:24:27.440Z,7.10
2022-09-10T08:25:27.505Z,4.80
2022-09-10T08:26:27.402Z,5.40
2022-09-10T08:27:27.372Z,2.50
2022-09-10T08:28:27.368Z,1999.90
2022-09-10T08:29:27.293Z,1999.90
2022-09-10T08:30:27.270Z,624.50
2022-09-10T08:31:27.381Z,429.10
2022-09-10T08:32:27.200Z,837.40
2022-09-10T08:33:27.214Z,240.90
2022-09-10T08:34:27.155Z,122.60
2022-09-10T08:35:27.124Z,49.60
2022-09-10T08:36:27.101Z,17.80
2022-09-10T08:37:27.265Z,9.80
2022-09-10T08:38:27.047Z,5.70
2022-09-10T08:39:27.073Z,3.70
2022-09-10T08:40:26.974Z,4.50
2022-09-10T08:41:26.950Z,4.40
2022-09-10T08:42:26.943Z,3.30
2022-09-10T08:43:26.967Z,1.20
2022-09-10T08:44:27.137Z,2.10
2022-09-10T08:45:26.861Z,3.90
2022-09-10T08:46:26.781Z,1508.70
2022-09-10T08:47:26.735Z,1476.60
2022-09-10T08:48:26.719Z,1999.90
2022-09-10T08:49:26.799Z,435.10
2022-09-10T08:50:26.650Z,1615.00
2022-09-10T08:51:26.669Z,638.80
2022-09-10T08:52:26.597Z,614.60
2022-09-10T08:53:26.595Z,347.90
2022-09-10T08:54:26.523Z,143.60
2022-09-10T08:55:26.659Z,35.50
2022-09-10T08:56:26.501Z,49.10
2022-09-10T08:57:26.487Z,25.10
2022-09-10T08:58:26.405Z,13.10
2022-09-10T08:59:26.360Z,4.70
2022-09-10T09:00:26.337Z,7.60
2022-09-10T09:01:26.505Z,3.30
2022-09-10T09:02:47.142Z,4.50
2022-09-10T09:03:27.298Z,3.20
2022-09-10T09:04:26.226Z,1.40
2022-09-10T09:05:26.195Z,1.10
2022-09-10T09:06:26.185Z,4.00
2022-09-10T09:07:26.347Z,2.20
2022-09-10T09:08:26.114Z,2.70
2022-09-10T09:09:26.266Z,4.40
2022-09-10T09:10:26.054Z,2.60
2022-09-10T09:11:26.038Z,1.80
2022-09-10T09:12:25.994Z,2.60
2022-09-10T09:13:26.175Z,3.80
2022-09-10T09:14:25.923Z,4.50
2022-09-10T09:15:25.923Z,2.30
2022-09-10T09:16:25.871Z,2.40
2022-09-10T09:17:25.823Z,2.30
2022-09-10T09:18:25.806Z,2.00
2022-09-10T09:19:25.908Z,3.10
2022-09-10T09:20:25.760Z,2.80
2022-09-10T09:21:25.731Z,1.00
2022-09-10T09:22:25.681Z,4.10
2022-09-10T09:23:25.642Z,2.10
2022-09-10T09:24:25.833Z,2.10
2022-09-10T09:25:25.591Z,2.60
2022-09-10T09:26:25.568Z,2.20
2022-09-10T09:27:25.558Z,2.10
2022-09-10T09:28:25.509Z,1.50
2022-09-10T09:29:25.465Z,3.20
2022-09-10T09:30:25.528Z,1.90
2022-09-10T09:31:25.454Z,1.30
2022-09-10T09:32:25.374Z,2.00
2022-09-10T09:33:25.397Z,1.50
2022-09-10T09:34:25.319Z,2.60
2022-09-10T09:35:25.306Z,2.60
2022-09-10T09:36:25.360Z,2.20
2022-09-10T09:37:25.241Z,1.10
2022-09-10T09:38:25.220Z,1.30
2022-09-10T09:39:25.860Z,2.70
2022-09-10T09:40:25.152Z,2.60
2022-09-10T09:41:25.125Z,1.60
2022-09-10T09:42:25.257Z,3.20
2022-09-10T09:43:25.063Z,1.70
2022-09-10T09:44:25.038Z,2.60
2022-09-10T09:45:25.034Z,4.40
2022-09-10T09:46:24.989Z,1.90
2022-09-10T09:47:24.971Z,1.10
2022-09-10T09:48:25.105Z,2.60
2022-09-10T09:49:24.916Z,1.90
2022-09-10T09:50:24.885Z,2.70
2022-09-10T09:51:25.022Z,1.50
2022-09-10T09:52:24.856Z,2.10
2022-09-10T09:53:24.818Z,2.00
2022-09-10T09:55:09.930Z,2.60
2022-09-10T09:55:25.773Z,3.10
2022-09-10T09:56:24.738Z,2.60
2022-09-10T09:57:24.789Z,1.60
2022-09-10T09:58:24.708Z,2.70
2022-09-10T09:59:24.682Z,1.90
2022-09-10T10:00:24.750Z,3.40
2022-09-10T10:01:24.714Z,0.90
2022-09-10T10:02:24.625Z,2.10
2022-09-10T10:03:24.609Z,2.80
2022-09-10T10:04:24.537Z,4.00
2022-09-10T10:05:24.512Z,1.70
2022-09-10T10:06:24.563Z,2.70
2022-09-10T10:07:24.446Z,3.30
2022-09-10T10:08:24.426Z,2.70
2022-09-10T10:09:24.421Z,1.80
2022-09-10T10:10:24.378Z,1.50
2022-09-10T10:11:24.327Z,1.40
2022-09-10T10:12:24.517Z,1.70
2022-09-10T10:13:24.285Z,3.60
2022-09-10T10:14:24.252Z,2.50
2022-09-10T10:15:24.410Z,2.50
2022-09-10T10:16:24.200Z,1.90
2022-09-10T10:17:24.163Z,2.40
2022-09-10T10:18:24.231Z,1.80
2022-09-10T10:19:24.115Z,3.50
2022-09-10T10:20:24.068Z,1.20
2022-09-10T10:21:24.064Z,1.40
2022-09-10T10:22:24.056Z,2.50
2022-09-10T10:23:27.065Z,5.00
2022-09-10T10:24:25.031Z,5.10
2022-09-10T10:25:23.920Z,2.70
2022-09-10T10:26:23.891Z,2.00
2022-09-10T10:27:23.902Z,2.90
2022-09-10T10:28:23.841Z,1.40
2022-09-10T10:29:23.778Z,1338.10
2022-09-10T10:30:23.831Z,1763.90
2022-09-10T10:31:23.799Z,1999.90
2022-09-10T10:32:23.690Z,148.50
2022-09-10T10:33:23.721Z,139.90
2022-09-10T10:34:23.629Z,178.30
2022-09-10T10:35:23.587Z,89.90
2022-09-10T10:36:23.647Z,46.00
2022-09-10T10:37:23.535Z,15.60
2022-09-10T10:38:23.508Z,7.70
2022-09-10T10:39:23.506Z,1999.90
2022-09-10T10:40:23.450Z,1126.30
2022-09-10T10:41:23.431Z,1870.20
2022-09-10T10:42:23.539Z,167.10
2022-09-10T10:43:23.348Z,331.10
2022-09-10T10:44:23.326Z,134.10
2022-09-10T10:45:23.338Z,56.60
2022-09-10T10:46:23.300Z,21.20
2022-09-10T10:47:23.246Z,6.70
2022-09-10T10:48:23.300Z,4.90
2022-09-10T10:49:23.184Z,3.90
2022-09-10T10:50:23.151Z,2.80
2022-09-10T10:51:23.143Z,3.20
2022-09-10T10:52:23.092Z,4.40
2022-09-10T10:53:23.038Z,1196.60
2022-09-10T10:54:23.425Z,433.60
2022-09-10T10:55:22.976Z,489.60
2022-09-10T10:56:22.930Z,304.20
2022-09-10T10:57:22.932Z,1999.90
2022-09-10T10:58:22.866Z,337.60
2022-09-10T10:59:22.823Z,508.90
2022-09-10T11:00:22.958Z,286.00
2022-09-10T11:01:22.810Z,146.10
2022-09-10T11:02:22.757Z,55.70
2022-09-10T11:03:22.701Z,41.70
2022-09-10T11:04:22.616Z,20.50
2022-09-10T11:05:22.582Z,8.00
2022-09-10T11:06:22.671Z,1268.20
2022-09-10T11:07:22.491Z,1692.70
2022-09-10T11:08:22.456Z,1537.80
2022-09-10T11:09:22.456Z,189.90
2022-09-10T11:10:22.393Z,412.30
2022-09-10T11:11:22.358Z,1843.00
2022-09-10T11:12:22.567Z,138.90
2022-09-10T11:13:22.298Z,171.00
2022-09-10T11:14:22.256Z,55.40
2022-09-10T11:15:22.249Z,36.90
2022-09-10T11:16:22.145Z,19.70
2022-09-10T11:17:22.130Z,1999.90
2022-09-10T11:18:22.901Z,1055.00
2022-09-10T11:19:22.130Z,234.40
2022-09-10T11:20:28.998Z,174.80
2022-09-10T11:21:23.019Z,81.80
2022-09-10T11:22:21.941Z,43.50
2022-09-10T11:23:21.947Z,1115.50
2022-09-10T11:24:22.062Z,260.30
2022-09-10T11:25:21.898Z,42.00
2022-09-10T11:26:21.941Z,24.30
2022-09-10T11:27:21.804Z,12.20
2022-09-10T11:28:21.817Z,7.30
2022-09-10T11:29:21.787Z,4.90
2022-09-10T11:30:21.814Z,2.60
2022-09-10T11:31:21.993Z,4.40
2022-09-10T11:32:21.575Z,3.10
2022-09-10T11:33:21.583Z,3.90
2022-09-10T11:34:21.505Z,1.60
2022-09-10T11:35:21.477Z,1.10
2022-09-10T11:36:21.974Z,2.20
2022-09-10T11:37:21.470Z,2.70
2022-09-10T11:38:21.342Z,5.00
2022-09-10T11:39:21.347Z,3.00
2022-09-10T11:40:21.283Z,3.30
2022-09-10T11:41:21.312Z,5.20
2022-09-10T11:42:21.380Z,3.20
2022-09-10T11:43:21.513Z,3.00
2022-09-10T11:44:21.158Z,4.20
2022-09-10T11:45:21.221Z,5.10
2022-09-10T11:46:21.116Z,6.10
2022-09-10T11:47:21.040Z,3.40
2022-09-10T11:48:21.147Z,4.60
2022-09-10T11:49:20.959Z,3.40
2022-09-10T11:50:20.940Z,9.10
2022-09-10T11:51:20.948Z,4.80
2022-09-10T11:52:20.871Z,3.90
2022-09-10T11:53:20.829Z,4.80
2022-09-10T11:54:20.960Z,2.60
2022-09-10T11:55:20.914Z,2.30
2022-09-10T11:56:20.753Z,2.40
2022-09-10T11:57:20.863Z,3.40
2022-09-10T11:58:20.831Z,5.90
2022-09-10T11:59:20.669Z,5.10
2022-09-10T12:00:20.740Z,5.30
2022-09-10T12:01:20.618Z,6.70
2022-09-10T12:02:20.754Z,14.90
2022-09-10T12:03:20.728Z,5.10
2022-09-10T12:04:20.534Z,9.10
2022-09-10T12:05:20.498Z,6.70
2022-09-10T12:06:21.023Z,8.30
2022-09-10T12:07:20.443Z,7.50
2022-09-10T12:08:20.430Z,4.30
2022-09-10T12:09:20.435Z,5.80
2022-09-10T12:10:20.370Z,3.10
2022-09-10T12:11:22.170Z,11.60
2022-09-10T12:12:20.326Z,3.40
2022-09-10T12:13:20.437Z,7.20
2022-09-10T12:14:20.265Z,5.90
2022-09-10T12:15:20.532Z,6.40
2022-09-10T12:16:21.263Z,3.70
2022-09-10T12:17:20.666Z,6.40
2022-09-10T12:18:20.184Z,4.10
2022-09-10T12:19:20.193Z,6.50
2022-09-10T12:20:20.100Z,4.20
2022-09-10T12:21:20.211Z,3.30
2022-09-10T12:22:20.074Z,4.30
2022-09-10T12:23:20.231Z,6.50
2022-09-10T12:24:20.022Z,7.30
2022-09-10T12:25:20.068Z,12.00
2022-09-10T12:26:19.973Z,5.20
2022-09-10T12:27:19.980Z,4.40
2022-09-10T12:28:19.927Z,3.20
2022-09-10T12:29:20.156Z,6.30
2022-09-10T12:30:19.907Z,3.90
2022-09-10T12:31:19.878Z,6.00
2022-09-10T12:32:19.830Z,3.70
2022-09-10T12:33:19.849Z,3.00
2022-09-10T12:34:19.783Z,4.50
2022-09-10T12:35:19.921Z,2.80
2022-09-10T12:36:20.667Z,2.30
2022-09-10T12:37:19.727Z,3.90
2022-09-10T12:38:19.771Z,7.20
2022-09-10T12:39:19.710Z,4.00
2022-09-10T12:40:19.743Z,3.60
2022-09-10T12:41:19.698Z,5.70
2022-09-10T12:42:19.655Z,3.10
2022-09-10T12:43:19.610Z,4.80
2022-09-10T12:44:19.500Z,2.70
2022-09-10T12:45:19.525Z,2.00
2022-09-10T12:46:19.667Z,2.10
2022-09-10T12:47:19.697Z,2.40
2022-09-10T12:48:20.565Z,4.10
2022-09-10T12:49:19.345Z,2.30
2022-09-10T12:50:19.431Z,3.80
2022-09-10T12:51:19.343Z,4.40
2022-09-10T12:52:19.315Z,3.00
2022-09-10T12:53:19.369Z,2.80
2022-09-10T12:54:19.186Z,4.80
2022-09-10T12:55:19.165Z,2.20
2022-09-10T12:56:19.127Z,2.20
2022-09-10T12:57:19.353Z,1.30
2022-09-10T12:58:19.078Z,3.10
2022-09-10T12:59:19.214Z,2.30
2022-09-10T13:00:19.034Z,3.30
2022-09-10T13:01:19.276Z,3.50
2022-09-10T13:02:19.042Z,4.00
2022-09-10T13:03:19.190Z,2.90
2022-09-10T13:04:18.900Z,2.90
2022-09-10T13:05:18.996Z,3.50
2022-09-10T13:06:18.856Z,1.40
2022-09-10T13:07:18.821Z,2.10
2022-09-10T13:08:18.793Z,2.70
2022-09-10T13:09:18.790Z,1.70
2022-09-10T13:10:21.857Z,3.70
2022-09-10T13:11:18.829Z,4.70
2022-09-10T13:12:18.659Z,2.00